Time;durP1;ratioP1;P1;durP2;ratioP2;P2;SDS_P1;SDS_P2;PMS_P1;PMS_P2;Temp;Humidity;BMP_temperature;BMP_pressure;BME280_temperature;BME280_humidity;BME280_pressure;Samples;Min_cycle;Max_cycle;Signal;HPM_P1;HPM_P2
2021/08/29 00:00:23;;;;;;;21.95;4.72;;;16.30;99.90;;;;;;4832085;29;20541;-91
2021/08/29 00:02:48;;;;;;;16.85;3.63;;;16.30;99.90;;;;;;4857343;29;20133;-90
2021/08/29 00:05:14;;;;;;;13.68;3.03;;;16.30;99.90;;;;;;4847453;29;20037;-92
2021/08/29 00:07:40;;;;;;;18.55;4.22;;;16.30;99.90;;;;;;4855022;29;20053;-91
2021/08/29 00:10:07;;;;;;;15.98;4.10;;;16.30;99.90;;;;;;4850907;29;20057;-90
2021/08/29 00:12:33;;;;;;;15.52;3.08;;;16.30;99.90;;;;;;4841830;29;20393;-92
2021/08/29 00:14:58;;;;;;;10.30;2.88;;;16.30;99.90;;;;;;4846651;29;20061;-92
2021/08/29 00:17:24;;;;;;;9.93;3.28;;;16.40;99.90;;;;;;4861190;29;20458;-91
2021/08/29 00:19:50;;;;;;;11.98;3.60;;;16.40;99.90;;;;;;4832827;29;20063;-90
2021/08/29 00:22:16;;;;;;;15.65;3.88;;;16.30;99.90;;;;;;4862614;29;20628;-89
2021/08/29 00:24:42;;;;;;;15.07;3.45;;;16.40;99.90;;;;;;4861538;29;20057;-92
2021/08/29 00:27:08;;;;;;;16.60;4.10;;;16.40;99.90;;;;;;4847320;29;20064;-89
2021/08/29 00:29:33;;;;;;;13.02;3.50;;;16.40;99.90;;;;;;4828761;29;20053;-91
2021/08/29 00:31:59;;;;;;;12.25;3.38;;;16.40;99.90;;;;;;4845288;29;20490;-90
2021/08/29 00:34:25;;;;;;;14.82;4.25;;;16.40;99.90;;;;;;4830978;29;20049;-92
2021/08/29 00:36:50;;;;;;;16.73;3.45;;;16.40;99.90;;;;;;4833121;29;20066;-90
2021/08/29 00:39:17;;;;;;;9.18;3.38;;;16.40;99.90;;;;;;4861839;29;20092;-89
2021/08/29 00:41:44;;;;;;;14.60;2.90;;;16.30;99.90;;;;;;4828036;29;20065;-90
2021/08/29 00:44:17;;;;;;;10.73;2.65;;;16.30;99.90;;;;;;4846682;29;20049;-89
2021/08/29 00:46:43;;;;;;;16.42;3.78;;;16.30;99.90;;;;;;4845634;29;20057;-89
2021/08/29 00:49:20;;;;;;;11.23;3.15;;;16.30;99.90;;;;;;4861377;29;20047;-89
2021/08/29 00:51:49;;;;;;;15.23;3.50;;;16.30;99.90;;;;;;4839974;29;20049;-90
2021/08/29 00:54:15;;;;;;;17.77;4.28;;;16.30;99.90;;;;;;4865254;29;20397;-90
2021/08/29 00:56:40;;;;;;;19.48;4.38;;;16.30;99.90;;;;;;4846152;29;20135;-89
2021/08/29 00:59:06;;;;;;;17.98;3.70;;;16.30;99.90;;;;;;4861006;29;20049;-90
2021/08/29 01:01:42;;;;;;;15.52;3.25;;;16.30;99.90;;;;;;4830407;29;20063;-91
2021/08/29 01:04:19;;;;;;;15.00;3.22;;;16.30;99.90;;;;;;4846446;29;20164;-90
2021/08/29 01:06:57;;;;;;;22.35;3.72;;;16.30;99.90;;;;;;4861225;29;20376;-91
2021/08/29 01:09:24;;;;;;;8.98;3.20;;;16.30;99.90;;;;;;4872850;29;20061;-91
2021/08/29 01:11:52;;;;;;;18.48;4.15;;;16.30;99.90;;;;;;4853039;29;20065;-92
2021/08/29 01:14:30;;;;;;;14.90;3.58;;;16.30;99.90;;;;;;4857480;29;20100;-91
2021/08/29 01:17:01;;;;;;;21.77;3.97;;;16.30;99.90;;;;;;4845367;29;20573;-90
2021/08/29 01:19:49;;;;;;;8.13;2.85;;;16.30;99.90;;;;;;4861066;29;20525;-91
2021/08/29 01:22:15;;;;;;;12.40;3.40;;;16.30;99.90;;;;;;4846171;29;20049;-90
2021/08/29 01:24:42;;;;;;;13.23;3.35;;;16.30;99.90;;;;;;4859914;29;20162;-91
2021/08/29 01:27:17;;;;;;;13.40;2.58;;;16.30;99.90;;;;;;4851877;29;20053;-90
2021/08/29 01:29:42;;;;;;;12.23;3.30;;;16.30;99.90;;;;;;4829943;29;20041;-89
2021/08/29 01:32:09;;;;;;;14.55;3.85;;;16.30;99.90;;;;;;4836968;29;20055;-90
2021/08/29 01:34:35;;;;;;;14.65;2.85;;;16.30;99.90;;;;;;4856386;29;20486;-90
2021/08/29 01:37:01;;;;;;;7.47;3.35;;;16.30;99.90;;;;;;4850451;29;20056;-89
2021/08/29 01:39:27;;;;;;;13.98;3.28;;;16.40;99.90;;;;;;4833888;29;20082;-90
2021/08/29 01:41:54;;;;;;;18.73;3.38;;;16.30;99.90;;;;;;4855148;29;20041;-90
2021/08/29 01:44:21;;;;;;;14.65;3.42;;;16.40;99.90;;;;;;4830802;29;20056;-92
2021/08/29 01:46:47;;;;;;;13.05;2.67;;;16.40;99.90;;;;;;4829775;29;20045;-88
2021/08/29 01:49:14;;;;;;;9.25;2.92;;;16.30;99.90;;;;;;4861082;29;20049;-92
2021/08/29 01:51:41;;;;;;;17.77;2.70;;;16.30;99.90;;;;;;4830512;29;20553;-90
2021/08/29 01:54:07;;;;;;;9.88;2.72;;;16.30;99.90;;;;;;4842226;29;20049;-89
2021/08/29 01:57:00;;;;;;;10.63;3.00;;;16.30;99.90;;;;;;4824760;29;20055;-89
2021/08/29 01:59:27;;;;;;;14.85;2.80;;;16.30;99.90;;;;;;4844178;29;20093;-89
2021/08/29 02:01:53;;;;;;;11.93;3.45;;;16.30;99.90;;;;;;4840902;29;20067;-90
2021/08/29 02:04:21;;;;;;;12.80;2.88;;;16.30;99.90;;;;;;4859829;29;20528;-90
2021/08/29 02:06:51;;;;;;;12.93;3.25;;;16.40;99.90;;;;;;4845281;29;20045;-89
2021/08/29 02:09:19;;;;;;;12.68;2.60;;;16.30;99.90;;;;;;4857695;29;20106;-90
2021/08/29 02:11:53;;;;;;;9.63;3.03;;;16.40;99.90;;;;;;4850103;29;20061;-90
2021/08/29 02:14:27;;;;;;;7.97;2.60;;;16.30;99.90;;;;;;4860120;29;20057;-90
2021/08/29 02:16:54;;;;;;;7.95;2.63;;;16.40;99.90;;;;;;4859930;29;20049;-90
2021/08/29 02:19:25;;;;;;;9.52;2.90;;;16.40;99.90;;;;;;4836732;29;20549;-89
2021/08/29 02:21:52;;;;;;;9.10;2.83;;;16.40;99.90;;;;;;4837038;29;20140;-89
2021/08/29 02:24:24;;;;;;;9.57;2.72;;;16.40;99.90;;;;;;4854833;29;20049;-91
2021/08/29 02:26:51;;;;;;;8.45;2.78;;;16.40;99.90;;;;;;4859822;29;20144;-89
2021/08/29 02:29:17;;;;;;;9.40;3.13;;;16.40;99.90;;;;;;4844682;29;20128;-89
2021/08/29 02:31:45;;;;;;;11.40;2.72;;;16.50;99.90;;;;;;4875934;29;20061;-92
2021/08/29 02:34:11;;;;;;;11.73;3.10;;;16.50;99.90;;;;;;4833549;29;20105;-92
2021/08/29 02:36:37;;;;;;;7.40;2.95;;;16.50;99.90;;;;;;4845664;29;20052;-91
2021/08/29 02:39:05;;;;;;;9.75;2.80;;;16.50;99.90;;;;;;4859727;29;20405;-93
2021/08/29 02:41:31;;;;;;;6.82;2.53;;;16.50;99.90;;;;;;4858702;29;20049;-92
2021/08/29 02:43:59;;;;;;;9.55;2.63;;;16.60;99.90;;;;;;4848594;29;20482;-90
2021/08/29 02:46:25;;;;;;;5.85;1.88;;;16.60;99.90;;;;;;4860235;29;20098;-90
2021/08/29 02:48:52;;;;;;;6.75;2.75;;;16.50;99.90;;;;;;4844311;29;20140;-89
2021/08/29 02:51:18;;;;;;;6.85;2.00;;;16.60;99.90;;;;;;4847954;29;20384;-91
2021/08/29 02:53:44;;;;;;;9.68;2.65;;;16.60;99.90;;;;;;4857910;29;20045;-91
2021/08/29 02:56:11;;;;;;;9.40;2.08;;;16.60;99.90;;;;;;4859220;29;20198;-90
2021/08/29 02:58:38;;;;;;;9.65;3.05;;;16.60;99.90;;;;;;4844177;29;20052;-91
2021/08/29 03:01:04;;;;;;;11.15;2.92;;;16.60;99.90;;;;;;4851661;29;20053;-91
2021/08/29 03:03:30;;;;;;;10.80;3.05;;;16.60;99.90;;;;;;4841369;29;20104;-90
2021/08/29 03:05:55;;;;;;;13.38;2.45;;;16.60;99.90;;;;;;4843449;29;20084;-91
2021/08/29 03:08:21;;;;;;;13.70;2.83;;;16.70;99.90;;;;;;4844148;29;20131;-90
2021/08/29 03:10:47;;;;;;;11.35;3.03;;;16.70;99.90;;;;;;4843864;29;20506;-91
2021/08/29 03:13:17;;;;;;;11.35;3.15;;;16.70;99.90;;;;;;4853314;29;20043;-91
2021/08/29 03:15:44;;;;;;;7.40;2.67;;;16.70;99.90;;;;;;4875153;29;20057;-91
2021/08/29 03:18:10;;;;;;;8.88;2.45;;;16.70;99.90;;;;;;4853153;29;20045;-90
2021/08/29 03:20:36;;;;;;;8.88;2.60;;;16.70;99.90;;;;;;4818345;29;20398;-91
2021/08/29 03:23:02;;;;;;;11.90;3.33;;;16.70;99.90;;;;;;4848390;29;20152;-91
2021/08/29 03:25:28;;;;;;;19.15;2.67;;;16.70;99.90;;;;;;4838165;29;20057;-92
2021/08/29 03:27:54;;;;;;;7.80;2.85;;;16.70;99.90;;;;;;4858967;29;20059;-89
2021/08/29 03:30:20;;;;;;;9.50;2.33;;;16.60;99.90;;;;;;4844266;29;20136;-89
2021/08/29 03:32:46;;;;;;;8.20;2.20;;;16.50;99.90;;;;;;4858844;29;20051;-89
2021/08/29 03:35:13;;;;;;;13.10;3.35;;;16.50;99.90;;;;;;4830572;29;20088;-90
2021/08/29 03:37:41;;;;;;;4.93;2.03;;;16.50;99.90;;;;;;4853487;29;20391;-90
2021/08/29 03:40:07;;;;;;;14.05;3.20;;;16.40;99.90;;;;;;4844057;29;20072;-90
2021/08/29 03:42:34;;;;;;;6.30;1.40;;;16.40;99.90;;;;;;4859373;29;20049;-89
2021/08/29 03:45:06;;;;;;;10.57;1.73;;;16.30;99.90;;;;;;4842080;29;20850;-92
2021/08/29 03:47:32;;;;;;;1.65;1.38;;;16.30;99.90;;;;;;4843986;29;20128;-92
2021/08/29 03:49:58;;;;;;;3.20;1.90;;;16.10;99.90;;;;;;4827934;29;20101;-90
2021/08/29 03:52:24;;;;;;;5.30;2.20;;;16.10;99.90;;;;;;4859256;29;20054;-91
2021/08/29 03:54:50;;;;;;;12.30;2.55;;;16.00;99.90;;;;;;4858908;29;20093;-92
2021/08/29 03:57:16;;;;;;;8.18;2.70;;;15.70;99.90;;;;;;4832186;29;20072;-92
2021/08/29 03:59:42;;;;;;;2.95;1.33;;;15.50;99.90;;;;;;4859875;29;20067;-90
2021/08/29 04:02:08;;;;;;;10.43;2.75;;;15.30;99.90;;;;;;4858480;29;20049;-93
2021/08/29 04:04:34;;;;;;;1.98;1.42;;;15.10;99.90;;;;;;4859479;29;20069;-92
2021/08/29 04:07:05;;;;;;;8.85;1.90;;;15.00;99.90;;;;;;4827458;29;20147;-93
2021/08/29 04:09:32;;;;;;;12.82;2.75;;;14.80;99.90;;;;;;4852541;29;20459;-92
2021/08/29 04:12:00;;;;;;;10.02;2.80;;;14.70;99.90;;;;;;4830708;29;20124;-91
2021/08/29 04:14:27;;;;;;;9.18;2.80;;;14.70;99.90;;;;;;4872027;29;20049;-92
2021/08/29 04:16:59;;;;;;;10.30;3.13;;;14.60;99.90;;;;;;4846662;29;20132;-92
2021/08/29 04:19:26;;;;;;;17.42;3.42;;;14.60;99.90;;;;;;4836514;29;20089;-95
2021/08/29 04:21:53;;;;;;;12.40;3.47;;;14.50;99.90;;;;;;4865950;29;20061;-94
2021/08/29 04:24:19;;;;;;;21.92;4.75;;;14.50;99.90;;;;;;4841238;29;20056;-94
2021/08/29 04:26:46;;;;;;;14.95;3.67;;;14.50;99.90;;;;;;4856801;29;20046;-95
2021/08/29 04:29:12;;;;;;;18.88;3.58;;;14.50;99.90;;;;;;4848234;29;20565;-96
2021/08/29 04:31:38;;;;;;;11.02;2.72;;;14.50;99.90;;;;;;4824254;29;20053;-96
2021/08/29 04:34:06;;;;;;;16.02;4.03;;;14.60;99.90;;;;;;4848994;29;20054;-93
2021/08/29 04:36:34;;;;;;;19.30;3.63;;;14.60;99.90;;;;;;4837867;29;20064;-93
2021/08/29 04:39:03;;;;;;;11.70;3.35;;;14.60;99.90;;;;;;4857113;29;20069;-90
2021/08/29 04:41:29;;;;;;;24.52;4.03;;;14.50;99.90;;;;;;4874180;29;20056;-96
2021/08/29 04:43:55;;;;;;;17.20;4.13;;;14.50;99.90;;;;;;4851948;29;20033;-95
2021/08/29 04:46:20;;;;;;;14.20;3.65;;;14.60;99.90;;;;;;4879506;29;20044;-90
2021/08/29 04:48:46;;;;;;;11.27;2.40;;;14.70;99.90;;;;;;4873492;29;20074;-96
2021/08/29 04:51:12;;;;;;;29.80;4.25;;;14.90;99.90;;;;;;4867618;29;20057;-94
2021/08/29 04:53:37;;;;;;;19.63;2.65;;;15.00;99.90;;;;;;4857598;29;20039;-95
2021/08/29 04:56:03;;;;;;;15.70;3.80;;;15.00;99.90;;;;;;4866456;29;20050;-90
2021/08/29 04:58:29;;;;;;;24.65;3.63;;;15.00;99.90;;;;;;4855552;29;20041;-93
2021/08/29 05:00:56;;;;;;;14.80;2.25;;;14.90;99.90;;;;;;4862172;29;20086;-92
2021/08/29 05:03:21;;;;;;;20.67;4.68;;;15.00;99.90;;;;;;4827078;29;20069;-93
2021/08/29 05:05:47;;;;;;;29.00;4.00;;;15.00;99.90;;;;;;4841180;29;20619;-95
2021/08/29 05:08:13;;;;;;;23.92;5.18;;;15.00;99.90;;;;;;4850924;29;20149;-95
2021/08/29 05:10:39;;;;;;;30.30;4.60;;;15.00;99.90;;;;;;4852816;29;20100;-93
2021/08/29 05:13:04;;;;;;;25.55;4.70;;;15.10;99.90;;;;;;4850922;29;20060;-90
2021/08/29 05:15:30;;;;;;;33.72;4.13;;;15.00;99.90;;;;;;4851894;29;20105;-96
2021/08/29 05:17:56;;;;;;;26.13;4.00;;;15.00;99.90;;;;;;4864958;29;20128;-94
2021/08/29 05:20:22;;;;;;;25.70;4.05;;;15.00;99.90;;;;;;4852469;29;20057;-95
2021/08/29 05:22:48;;;;;;;9.02;2.35;;;15.00;99.90;;;;;;4845367;29;20148;-92
2021/08/29 05:25:14;;;;;;;17.15;3.47;;;15.00;99.90;;;;;;4822832;29;20121;-96
2021/08/29 05:27:39;;;;;;;27.73;4.32;;;15.10;99.90;;;;;;4833208;29;20049;-94
2021/08/29 05:30:06;;;;;;;35.08;4.40;;;15.10;99.90;;;;;;4841476;29;20045;-91
2021/08/29 05:32:31;;;;;;;22.73;3.63;;;15.20;99.90;;;;;;4856504;29;20072;-94
2021/08/29 05:34:57;;;;;;;28.40;3.25;;;15.20;99.90;;;;;;4840019;29;20407;-96
2021/08/29 05:37:23;;;;;;;23.35;3.47;;;15.20;99.90;;;;;;4848183;29;20056;-96
2021/08/29 05:39:49;;;;;;;27.02;4.13;;;15.20;99.90;;;;;;4849800;29;20509;-95
2021/08/29 05:42:14;;;;;;;31.30;4.30;;;15.20;99.90;;;;;;4861686;29;20387;-93
2021/08/29 05:44:40;;;;;;;28.27;3.20;;;15.20;99.90;;;;;;4846862;29;20057;-93
2021/08/29 05:47:06;;;;;;;28.42;4.13;;;15.20;99.90;;;;;;4830964;29;20049;-91
2021/08/29 05:49:32;;;;;;;32.33;3.70;;;15.20;99.90;;;;;;4861487;29;20064;-94
2021/08/29 05:51:57;;;;;;;51.10;5.28;;;15.30;99.90;;;;;;4861804;29;20041;-93
2021/08/29 05:54:23;;;;;;;28.15;3.38;;;15.30;99.90;;;;;;4847479;29;20052;-96
2021/08/29 05:56:49;;;;;;;15.32;3.53;;;15.20;99.90;;;;;;4856235;29;20180;-96
2021/08/29 05:59:14;;;;;;;15.45;3.85;;;15.20;99.90;;;;;;4859628;29;20041;-96
2021/08/29 06:01:40;;;;;;;13.32;3.13;;;15.10;99.90;;;;;;4851041;29;20091;-96
2021/08/29 06:04:06;;;;;;;10.32;3.88;;;15.10;99.90;;;;;;4849676;29;20045;-91
2021/08/29 06:06:34;;;;;;;17.05;3.30;;;15.10;99.90;;;;;;4851861;29;20049;-94
2021/08/29 06:09:00;;;;;;;14.70;3.72;;;15.00;99.90;;;;;;4844879;29;20168;-96
2021/08/29 06:11:26;;;;;;;19.70;4.32;;;14.90;99.90;;;;;;4865490;29;20049;-96
2021/08/29 06:13:52;;;;;;;25.52;4.88;;;15.00;99.90;;;;;;4835245;29;20057;-94
2021/08/29 06:16:17;;;;;;;16.45;4.63;;;14.90;99.90;;;;;;4825719;29;20042;-96
2021/08/29 06:18:43;;;;;;;21.70;5.35;;;14.90;99.90;;;;;;4837429;29;20063;-95
2021/08/29 06:21:09;;;;;;;15.90;3.83;;;14.90;99.90;;;;;;4877457;29;20109;-91
2021/08/29 06:23:35;;;;;;;16.88;4.53;;;15.00;99.90;;;;;;4861486;29;20457;-93
2021/08/29 06:26:00;;;;;;;18.67;4.43;;;14.90;99.90;;;;;;4862072;29;20053;-94
2021/08/29 06:28:26;;;;;;;28.65;5.35;;;15.00;99.90;;;;;;4846763;29;20041;-95
2021/08/29 06:30:52;;;;;;;22.67;5.25;;;15.00;99.90;;;;;;4851116;29;20108;-96
2021/08/29 06:33:17;;;;;;;25.75;5.68;;;15.00;99.90;;;;;;4832562;29;20045;-95
2021/08/29 06:35:43;;;;;;;25.10;5.05;;;15.10;99.90;;;;;;4838786;29;20121;-96
2021/08/29 06:38:09;;;;;;;28.52;5.32;;;15.20;99.90;;;;;;4848119;29;20077;-92
2021/08/29 06:40:34;;;;;;;28.10;6.07;;;15.20;99.90;;;;;;4851203;29;20136;-94
2021/08/29 06:43:00;;;;;;;26.85;5.35;;;15.30;99.90;;;;;;4860030;29;20049;-91
2021/08/29 06:45:26;;;;;;;21.17;4.57;;;15.30;99.90;;;;;;4835300;29;20073;-95
2021/08/29 06:47:52;;;;;;;22.63;5.18;;;15.50;99.90;;;;;;4847909;29;20280;-95
2021/08/29 06:50:17;;;;;;;24.25;5.45;;;15.50;99.90;;;;;;4842618;29;20049;-96
2021/08/29 06:52:43;;;;;;;22.98;5.03;;;15.50;99.90;;;;;;4876760;29;20073;-96
2021/08/29 06:55:09;;;;;;;16.52;4.30;;;15.50;99.90;;;;;;4861303;29;20045;-94
2021/08/29 06:57:34;;;;;;;18.20;4.35;;;15.40;99.90;;;;;;4851731;29;20433;-94
2021/08/29 07:00:00;;;;;;;11.15;4.05;;;15.40;99.90;;;;;;4878386;29;20052;-95
2021/08/29 07:02:27;;;;;;;14.55;3.70;;;15.40;99.90;;;;;;4857364;29;20041;-95
2021/08/29 07:04:53;;;;;;;19.25;4.15;;;15.40;99.90;;;;;;4850789;29;20104;-96
2021/08/29 07:07:19;;;;;;;13.32;3.58;;;15.40;99.90;;;;;;4827515;29;20132;-95
2021/08/29 07:09:44;;;;;;;18.80;3.60;;;15.40;99.90;;;;;;4831066;29;20049;-96
2021/08/29 07:12:11;;;;;;;9.20;3.25;;;15.50;99.90;;;;;;4834342;29;20487;-96
2021/08/29 07:14:37;;;;;;;7.95;2.75;;;15.50;99.90;;;;;;4816010;29;20061;-96
2021/08/29 07:17:03;;;;;;;9.50;2.70;;;15.50;99.90;;;;;;4833461;29;20128;-96
2021/08/29 07:19:29;;;;;;;7.78;2.78;;;15.50;99.90;;;;;;4840628;29;20061;-92
2021/08/29 07:21:55;;;;;;;7.97;2.35;;;15.50;99.90;;;;;;4864628;24;20081;-96
2021/08/29 07:24:20;;;;;;;9.20;2.60;;;15.50;99.90;;;;;;4894357;29;20072;-94
2021/08/29 07:26:46;;;;;;;6.35;2.35;;;15.60;99.90;;;;;;4873494;29;20121;-95
2021/08/29 07:29:12;;;;;;;9.40;2.22;;;15.50;99.90;;;;;;4869548;29;20080;-94
2021/08/29 07:31:37;;;;;;;12.48;2.78;;;15.50;99.90;;;;;;4886322;29;20408;-96
2021/08/29 07:34:03;;;;;;;5.55;1.90;;;15.50;99.90;;;;;;4890032;29;20393;-94
2021/08/29 07:36:29;;;;;;;6.05;2.00;;;15.50;99.90;;;;;;4884257;29;20052;-96
2021/08/29 07:38:55;;;;;;;10.43;2.83;;;15.50;99.90;;;;;;4882184;29;20056;-95
2021/08/29 07:41:21;;;;;;;5.55;2.10;;;15.50;99.90;;;;;;4864262;29;20053;-93
2021/08/29 07:43:46;;;;;;;4.80;1.70;;;15.50;99.90;;;;;;4886999;29;20060;-96
2021/08/29 07:46:12;;;;;;;7.47;2.00;;;15.50;99.90;;;;;;4878644;29;20044;-93
2021/08/29 07:48:38;;;;;;;2.45;1.88;;;15.50;99.90;;;;;;4882421;29;20189;-95
2021/08/29 07:51:04;;;;;;;8.98;1.98;;;15.50;99.90;;;;;;4886782;29;20044;-93
2021/08/29 07:53:30;;;;;;;8.63;2.10;;;15.50;99.90;;;;;;4875986;29;20044;-96
2021/08/29 07:55:55;;;;;;;5.32;1.90;;;15.50;99.90;;;;;;4862954;29;20084;-96
2021/08/29 07:58:21;;;;;;;13.52;4.15;;;15.50;99.90;;;;;;4862680;29;20055;-93
2021/08/29 08:00:47;;;;;;;8.80;2.53;;;15.60;99.90;;;;;;4850734;29;20105;-94
2021/08/29 08:03:13;;;;;;;3.40;1.80;;;15.60;99.90;;;;;;4846615;29;20462;-94
2021/08/29 08:05:39;;;;;;;9.85;2.15;;;15.60;99.90;;;;;;4878294;29;20032;-92
2021/08/29 08:08:04;;;;;;;6.75;2.40;;;15.60;99.90;;;;;;4878253;29;20056;-95
2021/08/29 08:10:31;;;;;;;5.75;2.28;;;15.60;99.90;;;;;;4895860;29;20052;-93
2021/08/29 08:12:58;;;;;;;6.10;2.53;;;15.70;99.90;;;;;;4846684;29;20060;-95
2021/08/29 08:15:24;;;;;;;8.13;2.30;;;15.70;99.90;;;;;;4887947;29;20053;-94
2021/08/29 08:17:49;;;;;;;4.97;2.05;;;15.70;99.90;;;;;;4906443;29;20052;-90
2021/08/29 08:20:15;;;;;;;5.55;2.35;;;15.80;99.90;;;;;;4889942;29;20048;-96
2021/08/29 08:22:42;;;;;;;7.97;2.38;;;15.90;99.90;;;;;;4878833;29;20591;-93
2021/08/29 08:25:08;;;;;;;10.07;2.72;;;15.90;99.90;;;;;;4897938;29;20060;-93
2021/08/29 08:27:34;;;;;;;7.47;2.00;;;15.90;99.90;;;;;;4878953;29;20088;-91
2021/08/29 08:30:02;;;;;;;8.18;2.17;;;15.90;99.90;;;;;;4881004;29;20059;-94
2021/08/29 08:32:28;;;;;;;6.70;2.45;;;15.90;99.90;;;;;;4891664;29;20493;-93
2021/08/29 08:34:54;;;;;;;4.82;2.00;;;15.90;99.90;;;;;;4885299;29;20051;-93
2021/08/29 08:37:20;;;;;;;5.25;1.83;;;15.90;99.90;;;;;;4852540;29;20078;-93
2021/08/29 08:39:46;;;;;;;9.40;2.10;;;15.90;99.90;;;;;;4894292;29;20053;-93
2021/08/29 08:42:12;;;;;;;5.25;2.05;;;15.90;99.90;;;;;;4885008;29;20104;-94
2021/08/29 08:44:39;;;;;;;8.30;2.33;;;15.90;99.90;;;;;;4880764;29;20401;-93
2021/08/29 08:47:08;;;;;;;6.22;2.30;;;15.90;99.90;;;;;;4868123;29;20048;-92
2021/08/29 08:49:34;;;;;;;5.90;1.83;;;15.90;99.90;;;;;;4894647;29;20059;-95
2021/08/29 08:52:03;;;;;;;6.32;2.10;;;15.90;99.90;;;;;;4866937;29;20280;-95
2021/08/29 08:54:30;;;;;;;6.55;1.92;;;16.00;99.90;;;;;;4856605;29;20557;-91
2021/08/29 08:56:57;;;;;;;6.47;2.33;;;15.90;99.90;;;;;;4879887;29;20079;-94
2021/08/29 08:59:23;;;;;;;7.22;1.90;;;16.00;99.90;;;;;;4871534;29;20677;-92
2021/08/29 09:01:49;;;;;;;7.55;2.08;;;16.00;99.90;;;;;;4879844;29;20052;-93
2021/08/29 09:04:15;;;;;;;9.40;2.00;;;16.00;99.90;;;;;;4865958;29;20051;-91
2021/08/29 09:06:42;;;;;;;4.28;1.80;;;16.00;99.90;;;;;;4877630;29;20056;-93
2021/08/29 09:09:08;;;;;;;4.78;1.85;;;16.00;99.90;;;;;;4865724;29;20088;-94
2021/08/29 09:11:35;;;;;;;5.90;2.00;;;16.00;99.90;;;;;;4881735;29;20142;-92
2021/08/29 09:14:01;;;;;;;6.38;1.90;;;16.10;99.90;;;;;;4887192;29;20068;-94
2021/08/29 09:16:29;;;;;;;8.70;1.60;;;16.10;99.90;;;;;;4893857;29;20049;-91
2021/08/29 09:19:00;;;;;;;3.20;1.45;;;16.20;99.90;;;;;;4883105;29;20056;-93
2021/08/29 09:21:29;;;;;;;8.07;2.55;;;16.20;99.90;;;;;;4892323;29;20048;-92
2021/08/29 09:23:57;;;;;;;19.63;3.13;;;16.20;99.90;;;;;;4890670;29;20626;-93
2021/08/29 09:26:24;;;;;;;3.70;1.65;;;16.20;99.90;;;;;;4877965;29;20118;-92
2021/08/29 09:28:53;;;;;;;3.13;1.52;;;16.20;99.90;;;;;;4876784;29;20286;-93
2021/08/29 09:31:19;;;;;;;5.53;1.85;;;16.20;99.90;;;;;;4873725;29;20068;-94
2021/08/29 09:34:05;;;;;;;6.43;1.73;;;16.20;99.90;;;;;;4893863;29;20048;-93
2021/08/29 09:36:32;;;;;;;7.25;1.67;;;16.30;99.90;;;;;;4891406;29;20086;-90
2021/08/29 09:39:14;;;;;;;3.78;1.55;;;16.20;99.90;;;;;;4860062;29;20052;-94
2021/08/29 09:41:41;;;;;;;5.35;1.42;;;16.30;99.90;;;;;;4895598;29;20389;-93
2021/08/29 09:44:10;;;;;;;8.88;1.90;;;16.30;99.90;;;;;;4890458;29;20060;-92
2021/08/29 09:47:02;;;;;;;9.23;1.98;;;16.30;99.90;;;;;;4893482;29;20143;-94
2021/08/29 09:49:36;;;;;;;2.85;1.35;;;16.30;99.90;;;;;;4897577;29;20044;-94
2021/08/29 09:52:04;;;;;;;3.25;1.30;;;16.30;99.90;;;;;;4864121;29;20088;-93
2021/08/29 09:54:31;;;;;;;7.07;1.60;;;16.30;99.90;;;;;;4890264;29;20048;-91
2021/08/29 09:56:58;;;;;;;5.35;1.42;;;16.40;99.90;;;;;;4895254;29;20052;-92
2021/08/29 09:59:50;;;;;;;9.13;1.48;;;16.40;99.90;;;;;;4896049;29;20048;-94
2021/08/29 10:02:22;;;;;;;4.00;1.40;;;16.40;99.90;;;;;;4889883;29;20094;-93
2021/08/29 10:04:48;;;;;;;9.13;1.40;;;16.40;99.90;;;;;;4896518;29;20140;-93
2021/08/29 10:07:18;;;;;;;8.18;1.52;;;16.40;99.90;;;;;;4896489;29;20126;-95
2021/08/29 10:09:46;;;;;;;4.78;1.25;;;16.40;99.90;;;;;;4883429;29;20056;-90
2021/08/29 10:12:13;;;;;;;5.18;1.45;;;16.40;99.90;;;;;;4860336;29;20056;-91
2021/08/29 10:14:40;;;;;;;5.82;1.70;;;16.40;99.90;;;;;;4875726;29;20048;-91
2021/08/29 10:17:07;;;;;;;4.78;1.48;;;16.40;99.90;;;;;;4860465;29;20067;-91
2021/08/29 10:19:35;;;;;;;2.30;1.10;;;16.50;99.90;;;;;;4835611;29;20049;-90
2021/08/29 10:22:02;;;;;;;6.72;1.48;;;16.50;99.90;;;;;;4876050;29;20118;-93
2021/08/29 10:24:34;;;;;;;8.20;1.95;;;16.60;99.90;;;;;;4863464;29;20482;-92
2021/08/29 10:27:06;;;;;;;5.63;1.60;;;16.60;99.90;;;;;;4844983;29;20078;-93
2021/08/29 10:29:40;;;;;;;9.13;2.42;;;16.60;99.90;;;;;;4860796;29;20044;-92
2021/08/29 10:32:18;;;;;;;5.57;1.58;;;16.60;99.90;;;;;;4860263;29;20057;-92
2021/08/29 10:34:44;;;;;;;4.88;1.88;;;16.60;99.90;;;;;;4859199;29;20109;-91
2021/08/29 10:37:10;;;;;;;5.50;2.20;;;16.60;99.90;;;;;;4860333;29;20368;-91
2021/08/29 10:39:37;;;;;;;3.80;2.00;;;16.60;99.90;;;;;;4851830;29;20152;-89
2021/08/29 10:42:03;;;;;;;6.30;2.17;;;16.50;99.90;;;;;;4830170;29;20056;-91
2021/08/29 10:44:29;;;;;;;7.80;2.42;;;16.50;99.90;;;;;;4845240;29;20049;-91
2021/08/29 10:46:56;;;;;;;8.93;2.35;;;16.50;99.90;;;;;;4830340;29;20048;-92
2021/08/29 10:49:23;;;;;;;11.65;2.47;;;16.50;99.90;;;;;;4868557;29;20088;-92
2021/08/29 10:51:51;;;;;;;7.45;2.83;;;16.50;99.90;;;;;;4816401;29;20054;-92
2021/08/29 10:54:17;;;;;;;9.63;2.90;;;16.60;99.90;;;;;;4850235;29;20088;-92
2021/08/29 10:56:43;;;;;;;6.70;1.98;;;16.70;99.90;;;;;;4828861;29;20053;-92
2021/08/29 10:59:09;;;;;;;10.82;2.35;;;16.80;99.90;;;;;;4859867;29;20056;-91
2021/08/29 11:01:39;;;;;;;5.50;2.38;;;16.80;99.90;;;;;;4860037;29;20049;-89
2021/08/29 11:04:23;;;;;;;;;;;16.90;99.90;;;;;;4862605;29;20220;-91
2021/08/29 11:06:55;;;;;;;8.10;2.45;;;17.00;99.90;;;;;;4846838;29;19932;-91
2021/08/29 11:12:00;;;;;;;7.43;2.40;;;17.00;99.90;;;;;;4858980;29;20053;-90
2021/08/29 11:14:39;;;;;;;6.65;2.47;;;17.00;99.90;;;;;;4860517;29;20199;-90
2021/08/29 11:17:09;;;;;;;9.52;3.08;;;17.10;99.90;;;;;;4859242;29;20056;-90
2021/08/29 11:19:39;;;;;;;6.10;3.08;;;17.30;99.90;;;;;;4859323;29;20063;-90
2021/08/29 11:22:07;;;;;;;7.40;2.17;;;17.40;99.90;;;;;;4863496;29;20064;-89
2021/08/29 11:24:58;;;;;;;6.45;2.25;;;17.50;99.90;;;;;;4882867;29;20056;-92
2021/08/29 11:30:15;;;;;;;6.35;2.45;;;17.50;99.90;;;;;;4880385;29;20298;-92
2021/08/29 11:32:57;;;;;;;4.28;2.20;;;17.50;99.90;;;;;;4876564;29;20061;-90
2021/08/29 11:35:23;;;;;;;3.95;1.90;;;17.40;99.90;;;;;;4897359;29;20050;-91
2021/08/29 11:38:26;;;;;;;6.68;2.17;;;17.40;99.90;;;;;;4877536;29;20048;-92
2021/08/29 11:41:14;;;;;;;8.85;2.22;;;17.30;99.90;;;;;;4877534;29;20131;-91
2021/08/29 11:43:49;;;;;;;5.80;2.35;;;17.30;99.90;;;;;;4877576;29;20044;-91
2021/08/29 11:46:27;;;;;;;3.50;1.98;;;17.30;99.90;;;;;;4870115;29;20135;-91
2021/08/29 11:48:54;;;;;;;2.92;2.00;;;17.40;99.90;;;;;;4874157;29;20057;-91
2021/08/29 11:51:34;;;;;;;10.65;2.40;;;17.50;99.90;;;;;;4888406;29;20126;-91
2021/08/29 11:54:03;;;;;;;6.97;2.50;;;17.60;99.90;;;;;;4886012;29;20956;-91
2021/08/29 11:56:31;;;;;;;5.07;1.98;;;17.80;99.90;;;;;;4885905;29;20052;-91
2021/08/29 11:59:02;;;;;;;11.25;2.58;;;17.90;99.90;;;;;;4887285;29;20094;-91
2021/08/29 12:01:30;;;;;;;6.00;2.38;;;18.00;99.90;;;;;;4868169;29;20044;-92
2021/08/29 12:03:57;;;;;;;2.42;1.98;;;17.90;99.90;;;;;;4885267;29;20176;-90
2021/08/29 12:06:43;;;;;;;5.47;2.30;;;17.90;99.90;;;;;;4865274;29;20047;-90
2021/08/29 12:09:28;;;;;;;13.55;2.75;;;17.80;99.90;;;;;;4880373;29;20052;-91
2021/08/29 12:11:55;;;;;;;5.75;1.75;;;17.80;99.90;;;;;;4885384;29;20044;-91
2021/08/29 12:14:25;;;;;;;5.03;2.38;;;17.70;99.90;;;;;;4883361;29;20428;-90
2021/08/29 12:17:00;;;;;;;4.60;2.28;;;17.70;99.90;;;;;;4881175;29;20087;-90
2021/08/29 12:19:34;;;;;;;2.78;1.63;;;17.70;99.90;;;;;;4865958;29;20485;-90
2021/08/29 12:22:03;;;;;;;6.85;2.20;;;17.80;99.90;;;;;;4875032;29;20061;-90
2021/08/29 12:24:37;;;;;;;6.90;2.13;;;18.00;99.90;;;;;;4885133;29;20502;-91
2021/08/29 12:27:07;;;;;;;7.22;2.10;;;18.20;99.90;;;;;;4878780;29;20044;-91
2021/08/29 12:29:51;;;;;;;3.28;1.80;;;18.20;99.90;;;;;;4884337;29;20417;-91
2021/08/29 12:32:25;;;;;;;5.65;1.92;;;18.10;99.90;;;;;;4888558;29;20067;-90
2021/08/29 12:35:11;;;;;;;3.88;1.85;;;18.10;99.90;;;;;;4892976;29;20040;-90
2021/08/29 12:37:43;;;;;;;8.68;2.55;;;18.20;99.90;;;;;;4898229;29;20457;-90
2021/08/29 12:40:12;;;;;;;4.57;1.85;;;18.10;99.90;;;;;;4879310;29;20051;-91
2021/08/29 12:42:40;;;;;;;6.97;1.88;;;18.00;99.90;;;;;;4898184;29;20512;-91
2021/08/29 12:45:11;;;;;;;5.03;2.28;;;17.90;99.90;;;;;;4892630;29;20041;-91
2021/08/29 12:47:42;;;;;;;7.40;2.30;;;17.80;99.90;;;;;;4905928;29;20138;-91
2021/08/29 12:50:12;;;;;;;4.32;1.90;;;17.80;99.90;;;;;;4877271;29;20056;-91
2021/08/29 12:52:45;;;;;;;5.63;2.45;;;17.90;99.90;;;;;;4880515;29;20080;-90